sensor_id;sensor_type;location;lat;lon;timestamp;temperature;humidity
1379;DHT22;683;48.738;9.226;2023-09-07T00:01:32;17.20;99.90
1379;DHT22;683;48.738;9.226;2023-09-07T00:04:00;17.00;99.90
1379;DHT22;683;48.738;9.226;2023-09-07T00:06:29;16.90;99.90
1379;DHT22;683;48.738;9.226;2023-09-07T00:08:56;16.70;99.90
1379;DHT22;683;48.738;9.226;2023-09-07T00:11:23;16.50;99.90
1379;DHT22;683;48.738;9.226;2023-09-07T00:13:50;16.40;99.90
1379;DHT22;683;48.738;9.226;2023-09-07T00:16:18;16.30;99.90
1379;DHT22;683;48.738;9.226;2023-09-07T00:18:46;16.20;99.90
1379;DHT22;683;48.738;9.226;2023-09-07T00:21:14;16.20;99.90
1379;DHT22;683;48.738;9.226;2023-09-07T00:23:41;16.20;99.90
1379;DHT22;683;48.738;9.226;2023-09-07T00:26:08;16.10;99.90
1379;DHT22;683;48.738;9.226;2023-09-07T00:28:36;16.00;99.90
1379;DHT22;683;48.738;9.226;2023-09-07T00:31:03;15.90;99.90
1379;DHT22;683;48.738;9.226;2023-09-07T00:33:30;15.70;99.90
1379;DHT22;683;48.738;9.226;2023-09-07T00:36:01;15.60;99.90
1379;DHT22;683;48.738;9.226;2023-09-07T00:38:28;15.50;99.90
1379;DHT22;683;48.738;9.226;2023-09-07T00:40:55;15.40;99.90
1379;DHT22;683;48.738;9.226;2023-09-07T00:43:23;15.30;99.90
1379;DHT22;683;48.738;9.226;2023-09-07T00:45:50;15.20;99.90
1379;DHT22;683;48.738;9.226;2023-09-07T00:48:17;15.20;99.90
1379;DHT22;683;48.738;9.226;2023-09-07T00:50:45;15.10;99.90
1379;DHT22;683;48.738;9.226;2023-09-07T00:53:14;15.10;99.90
1379;DHT22;683;48.738;9.226;2023-09-07T00:55:44;15.00;99.90
1379;DHT22;683;48.738;9.226;2023-09-07T00:58:12;15.00;99.90
1379;DHT22;683;48.738;9.226;2023-09-07T01:00:39;14.90;99.90
1379;DHT22;683;48.738;9.226;2023-09-07T01:03:07;14.80;99.90
1379;DHT22;683;48.738;9.226;2023-09-07T01:05:41;14.80;99.90
1379;DHT22;683;48.738;9.226;2023-09-07T01:08:15;14.80;99.90
1379;DHT22;683;48.738;9.226;2023-09-07T01:10:45;14.80;99.90
1379;DHT22;683;48.738;9.226;2023-09-07T01:13:12;14.70;99.90
1379;DHT22;683;48.738;9.226;2023-09-07T01:15:40;14.70;99.90
1379;DHT22;683;48.738;9.226;2023-09-07T01:18:08;14.60;99.90
1379;DHT22;683;48.738;9.226;2023-09-07T01:20:36;14.60;99.90
1379;DHT22;683;48.738;9.226;2023-09-07T01:23:05;14.50;99.90
1379;DHT22;683;48.738;9.226;2023-09-07T01:25:32;14.50;99.90
1379;DHT22;683;48.738;9.226;2023-09-07T01:27:59;14.40;99.90
1379;DHT22;683;48.738;9.226;2023-09-07T01:30:27;14.40;99.90
1379;DHT22;683;48.738;9.226;2023-09-07T01:32:54;14.30;99.90
1379;DHT22;683;48.738;9.226;2023-09-07T01:35:21;14.30;99.90
1379;DHT22;683;48.738;9.226;2023-09-07T01:37:49;14.30;99.90
1379;DHT22;683;48.738;9.226;2023-09-07T01:40:17;14.30;99.90
1379;DHT22;683;48.738;9.226;2023-09-07T01:42:45;14.30;99.90
1379;DHT22;683;48.738;9.226;2023-09-07T01:45:12;14.30;99.90
1379;DHT22;683;48.738;9.226;2023-09-07T01:47:39;14.30;99.90
1379;DHT22;683;48.738;9.226;2023-09-07T01:50:06;14.20;99.90
1379;DHT22;683;48.738;9.226;2023-09-07T01:52:34;14.20;99.90
1379;DHT22;683;48.738;9.226;2023-09-07T01:55:01;14.10;99.90
1379;DHT22;683;48.738;9.226;2023-09-07T01:57:30;14.10;99.90
1379;DHT22;683;48.738;9.226;2023-09-07T01:59:58;14.00;99.90
1379;DHT22;683;48.738;9.226;2023-09-07T02:02:25;14.00;99.90
1379;DHT22;683;48.738;9.226;2023-09-07T02:04:52;13.90;99.90
1379;DHT22;683;48.738;9.226;2023-09-07T02:07:19;13.90;99.90
1379;DHT22;683;48.738;9.226;2023-09-07T02:09:46;13.90;99.90
1379;DHT22;683;48.738;9.226;2023-09-07T02:12:13;13.80;99.90
1379;DHT22;683;48.738;9.226;2023-09-07T02:14:42;13.80;99.90
1379;DHT22;683;48.738;9.226;2023-09-07T02:17:09;13.80;99.90
1379;DHT22;683;48.738;9.226;2023-09-07T02:19:40;13.70;99.90
1379;DHT22;683;48.738;9.226;2023-09-07T02:22:07;13.70;99.90
1379;DHT22;683;48.738;9.226;2023-09-07T02:24:34;13.60;99.90
1379;DHT22;683;48.738;9.226;2023-09-07T02:27:01;13.60;99.90
1379;DHT22;683;48.738;9.226;2023-09-07T02:29:28;13.50;99.90
1379;DHT22;683;48.738;9.226;2023-09-07T02:31:57;13.50;99.90
1379;DHT22;683;48.738;9.226;2023-09-07T02:34:24;13.50;99.90
1379;DHT22;683;48.738;9.226;2023-09-07T02:36:51;13.40;99.90
1379;DHT22;683;48.738;9.226;2023-09-07T02:39:18;13.40;99.90
1379;DHT22;683;48.738;9.226;2023-09-07T02:41:45;13.40;99.90
1379;DHT22;683;48.738;9.226;2023-09-07T02:44:13;13.40;99.90
1379;DHT22;683;48.738;9.226;2023-09-07T02:46:40;13.40;99.90
1379;DHT22;683;48.738;9.226;2023-09-07T02:49:08;13.40;99.90
1379;DHT22;683;48.738;9.226;2023-09-07T02:51:36;13.40;99.90
1379;DHT22;683;48.738;9.226;2023-09-07T02:54:04;13.40;99.90
1379;DHT22;683;48.738;9.226;2023-09-07T02:56:32;13.40;99.90
1379;DHT22;683;48.738;9.226;2023-09-07T02:58:59;13.50;99.90
1379;DHT22;683;48.738;9.226;2023-09-07T03:01:27;13.60;99.90
1379;DHT22;683;48.738;9.226;2023-09-07T03:03:55;13.60;99.90
1379;DHT22;683;48.738;9.226;2023-09-07T03:06:23;13.70;99.90
1379;DHT22;683;48.738;9.226;2023-09-07T03:08:53;13.60;99.90
1379;DHT22;683;48.738;9.226;2023-09-07T03:11:20;13.60;99.90
1379;DHT22;683;48.738;9.226;2023-09-07T03:13:49;13.50;99.90
1379;DHT22;683;48.738;9.226;2023-09-07T03:16:16;13.40;99.90
1379;DHT22;683;48.738;9.226;2023-09-07T03:18:43;13.40;99.90
1379;DHT22;683;48.738;9.226;2023-09-07T03:21:12;13.40;99.90
1379;DHT22;683;48.738;9.226;2023-09-07T03:23:41;13.30;99.90
1379;DHT22;683;48.738;9.226;2023-09-07T03:26:11;13.20;99.90
1379;DHT22;683;48.738;9.226;2023-09-07T03:28:39;13.10;99.90
1379;DHT22;683;48.738;9.226;2023-09-07T03:31:06;13.10;99.90
1379;DHT22;683;48.738;9.226;2023-09-07T03:33:34;13.00;99.90
1379;DHT22;683;48.738;9.226;2023-09-07T03:36:01;13.10;99.90
1379;DHT22;683;48.738;9.226;2023-09-07T03:38:29;12.90;99.90
1379;DHT22;683;48.738;9.226;2023-09-07T03:40:58;12.90;99.90
1379;DHT22;683;48.738;9.226;2023-09-07T03:43:25;12.80;99.90
1379;DHT22;683;48.738;9.226;2023-09-07T03:45:52;12.70;99.90
1379;DHT22;683;48.738;9.226;2023-09-07T03:48:19;12.70;99.90
1379;DHT22;683;48.738;9.226;2023-09-07T03:50:47;12.70;99.90
1379;DHT22;683;48.738;9.226;2023-09-07T03:53:14;12.70;99.90
1379;DHT22;683;48.738;9.226;2023-09-07T03:55:43;12.70;99.90
1379;DHT22;683;48.738;9.226;2023-09-07T03:58:14;12.70;99.90
1379;DHT22;683;48.738;9.226;2023-09-07T04:00:44;12.70;99.90
1379;DHT22;683;48.738;9.226;2023-09-07T04:03:11;12.70;99.90
1379;DHT22;683;48.738;9.226;2023-09-07T04:05:39;12.60;99.90
1379;DHT22;683;48.738;9.226;2023-09-07T04:08:06;12.60;99.90
1379;DHT22;683;48.738;9.226;2023-09-07T04:10:36;12.60;99.90
1379;DHT22;683;48.738;9.226;2023-09-07T04:13:04;12.50;99.90
1379;DHT22;683;48.738;9.226;2023-09-07T04:15:32;12.50;99.90
1379;DHT22;683;48.738;9.226;2023-09-07T04:18:00;12.40;99.90
1379;DHT22;683;48.738;9.226;2023-09-07T04:20:27;12.40;99.90
1379;DHT22;683;48.738;9.226;2023-09-07T04:22:55;12.40;99.90
1379;DHT22;683;48.738;9.226;2023-09-07T04:25:22;12.40;99.90
1379;DHT22;683;48.738;9.226;2023-09-07T04:27:49;12.40;99.90
1379;DHT22;683;48.738;9.226;2023-09-07T04:30:18;12.50;99.90
1379;DHT22;683;48.738;9.226;2023-09-07T04:32:46;12.50;99.90
1379;DHT22;683;48.738;9.226;2023-09-07T04:35:14;12.40;99.90
1379;DHT22;683;48.738;9.226;2023-09-07T04:37:42;12.40;99.90
1379;DHT22;683;48.738;9.226;2023-09-07T04:40:10;12.40;99.90
1379;DHT22;683;48.738;9.226;2023-09-07T04:42:38;12.40;99.90
1379;DHT22;683;48.738;9.226;2023-09-07T04:45:05;12.40;99.90
1379;DHT22;683;48.738;9.226;2023-09-07T04:47:33;12.30;99.90
1379;DHT22;683;48.738;9.226;2023-09-07T04:50:05;12.30;99.90
1379;DHT22;683;48.738;9.226;2023-09-07T04:52:32;12.30;99.90
1379;DHT22;683;48.738;9.226;2023-09-07T04:55:00;12.30;99.90
1379;DHT22;683;48.738;9.226;2023-09-07T04:57:29;12.30;99.90
1379;DHT22;683;48.738;9.226;2023-09-07T04:59:56;12.30;99.90
1379;DHT22;683;48.738;9.226;2023-09-07T05:02:23;12.30;99.90
1379;DHT22;683;48.738;9.226;2023-09-07T05:04:51;12.30;99.90
1379;DHT22;683;48.738;9.226;2023-09-07T05:07:20;12.30;99.90
1379;DHT22;683;48.738;9.226;2023-09-07T05:09:47;12.40;99.90
1379;DHT22;683;48.738;9.226;2023-09-07T05:12:15;12.50;99.90
1379;DHT22;683;48.738;9.226;2023-09-07T05:14:44;12.50;99.90
1379;DHT22;683;48.738;9.226;2023-09-07T05:17:11;12.60;99.90
1379;DHT22;683;48.738;9.226;2023-09-07T05:19:38;12.60;99.90
1379;DHT22;683;48.738;9.226;2023-09-07T05:22:06;12.70;99.90
1379;DHT22;683;48.738;9.226;2023-09-07T05:24:37;12.80;99.90
1379;DHT22;683;48.738;9.226;2023-09-07T05:27:06;12.90;99.90
1379;DHT22;683;48.738;9.226;2023-09-07T05:29:34;13.00;99.90
1379;DHT22;683;48.738;9.226;2023-09-07T05:32:01;13.10;99.90
1379;DHT22;683;48.738;9.226;2023-09-07T05:34:29;13.20;99.90
1379;DHT22;683;48.738;9.226;2023-09-07T05:36:56;13.30;99.90
1379;DHT22;683;48.738;9.226;2023-09-07T05:39:23;13.40;99.90
1379;DHT22;683;48.738;9.226;2023-09-07T05:41:52;13.60;99.90
1379;DHT22;683;48.738;9.226;2023-09-07T05:44:19;13.70;99.90
1379;DHT22;683;48.738;9.226;2023-09-07T05:46:46;13.90;99.90
1379;DHT22;683;48.738;9.226;2023-09-07T05:49:13;14.00;99.90
1379;DHT22;683;48.738;9.226;2023-09-07T05:51:41;14.20;99.90
1379;DHT22;683;48.738;9.226;2023-09-07T05:54:08;14.30;99.90
1379;DHT22;683;48.738;9.226;2023-09-07T05:56:35;14.50;99.90
1379;DHT22;683;48.738;9.226;2023-09-07T05:59:04;14.60;99.90
1379;DHT22;683;48.738;9.226;2023-09-07T06:01:31;14.80;99.90
1379;DHT22;683;48.738;9.226;2023-09-07T06:03:58;14.90;99.90
1379;DHT22;683;48.738;9.226;2023-09-07T06:06:26;15.10;99.90
1379;DHT22;683;48.738;9.226;2023-09-07T06:08:53;15.20;99.90
1379;DHT22;683;48.738;9.226;2023-09-07T06:11:20;15.40;99.90
1379;DHT22;683;48.738;9.226;2023-09-07T06:13:47;15.50;99.90
1379;DHT22;683;48.738;9.226;2023-09-07T06:16:16;15.70;99.90
1379;DHT22;683;48.738;9.226;2023-09-07T06:18:43;15.80;99.90
1379;DHT22;683;48.738;9.226;2023-09-07T06:21:11;15.90;99.90
1379;DHT22;683;48.738;9.226;2023-09-07T06:23:38;15.90;99.90
1379;DHT22;683;48.738;9.226;2023-09-07T06:26:05;16.00;99.90
1379;DHT22;683;48.738;9.226;2023-09-07T06:28:32;16.10;99.90
1379;DHT22;683;48.738;9.226;2023-09-07T06:31:00;16.20;99.90
1379;DHT22;683;48.738;9.226;2023-09-07T06:33:28;16.30;99.90
1379;DHT22;683;48.738;9.226;2023-09-07T06:35:56;16.50;99.90
1379;DHT22;683;48.738;9.226;2023-09-07T06:38:28;16.60;99.90
1379;DHT22;683;48.738;9.226;2023-09-07T06:40:55;16.70;99.90
1379;DHT22;683;48.738;9.226;2023-09-07T06:43:22;16.80;99.90
1379;DHT22;683;48.738;9.226;2023-09-07T06:45:50;17.00;99.90
1379;DHT22;683;48.738;9.226;2023-09-07T06:48:17;17.20;99.90
1379;DHT22;683;48.738;9.226;2023-09-07T06:50:45;17.30;99.90
1379;DHT22;683;48.738;9.226;2023-09-07T06:53:15;17.50;99.90
1379;DHT22;683;48.738;9.226;2023-09-07T06:55:42;17.80;99.90
1379;DHT22;683;48.738;9.226;2023-09-07T06:58:09;18.20;99.90
1379;DHT22;683;48.738;9.226;2023-09-07T07:00:37;18.40;99.90
1379;DHT22;683;48.738;9.226;2023-09-07T07:03:05;18.50;99.90
1379;DHT22;683;48.738;9.226;2023-09-07T07:05:33;18.50;99.90
1379;DHT22;683;48.738;9.226;2023-09-07T07:08:05;18.50;99.90
1379;DHT22;683;48.738;9.226;2023-09-07T07:10:34;18.50;99.90
1379;DHT22;683;48.738;9.226;2023-09-07T07:13:03;18.50;99.90
1379;DHT22;683;48.738;9.226;2023-09-07T07:15:31;18.40;99.90
1379;DHT22;683;48.738;9.226;2023-09-07T07:18:00;18.40;99.90
1379;DHT22;683;48.738;9.226;2023-09-07T07:20:31;18.50;99.90
1379;DHT22;683;48.738;9.226;2023-09-07T07:22:58;18.60;99.90
1379;DHT22;683;48.738;9.226;2023-09-07T07:25:27;18.70;99.90
1379;DHT22;683;48.738;9.226;2023-09-07T07:27:55;18.70;99.90
1379;DHT22;683;48.738;9.226;2023-09-07T07:30:22;18.80;99.90
1379;DHT22;683;48.738;9.226;2023-09-07T07:32:49;18.90;99.90
1379;DHT22;683;48.738;9.226;2023-09-07T07:35:17;19.00;99.90
1379;DHT22;683;48.738;9.226;2023-09-07T07:37:44;19.00;99.90
1379;DHT22;683;48.738;9.226;2023-09-07T07:40:12;19.10;99.90
1379;DHT22;683;48.738;9.226;2023-09-07T07:42:40;19.20;99.90
1379;DHT22;683;48.738;9.226;2023-09-07T07:45:08;19.20;99.90
1379;DHT22;683;48.738;9.226;2023-09-07T07:47:36;19.20;99.90
1379;DHT22;683;48.738;9.226;2023-09-07T07:50:04;19.30;99.90
1379;DHT22;683;48.738;9.226;2023-09-07T07:52:31;19.40;99.90
1379;DHT22;683;48.738;9.226;2023-09-07T07:54:59;19.50;99.90
1379;DHT22;683;48.738;9.226;2023-09-07T07:57:32;19.60;99.90
1379;DHT22;683;48.738;9.226;2023-09-07T08:00:02;19.80;99.90
1379;DHT22;683;48.738;9.226;2023-09-07T08:02:39;19.90;99.90
1379;DHT22;683;48.738;9.226;2023-09-07T08:05:09;20.00;99.90
1379;DHT22;683;48.738;9.226;2023-09-07T08:07:38;20.00;99.90
1379;DHT22;683;48.738;9.226;2023-09-07T08:10:06;20.10;99.90
1379;DHT22;683;48.738;9.226;2023-09-07T08:12:33;20.10;99.90
1379;DHT22;683;48.738;9.226;2023-09-07T08:15:02;20.20;99.90
1379;DHT22;683;48.738;9.226;2023-09-07T08:17:30;20.30;99.90
1379;DHT22;683;48.738;9.226;2023-09-07T08:19:57;20.40;99.90
1379;DHT22;683;48.738;9.226;2023-09-07T08:22:26;20.50;99.90
1379;DHT22;683;48.738;9.226;2023-09-07T08:24:53;20.60;99.90
1379;DHT22;683;48.738;9.226;2023-09-07T08:27:21;20.60;99.90
1379;DHT22;683;48.738;9.226;2023-09-07T08:29:53;20.70;99.90
1379;DHT22;683;48.738;9.226;2023-09-07T08:32:21;20.80;99.90
1379;DHT22;683;48.738;9.226;2023-09-07T08:34:49;20.90;99.90
1379;DHT22;683;48.738;9.226;2023-09-07T08:37:23;21.10;99.90
1379;DHT22;683;48.738;9.226;2023-09-07T08:39:50;21.20;99.90
1379;DHT22;683;48.738;9.226;2023-09-07T08:42:17;21.20;99.90
1379;DHT22;683;48.738;9.226;2023-09-07T08:44:45;21.20;99.90
1379;DHT22;683;48.738;9.226;2023-09-07T08:47:17;21.30;99.90
1379;DHT22;683;48.738;9.226;2023-09-07T08:49:49;21.40;99.90
1379;DHT22;683;48.738;9.226;2023-09-07T08:52:17;21.50;99.90
1379;DHT22;683;48.738;9.226;2023-09-07T08:54:45;21.50;99.90
1379;DHT22;683;48.738;9.226;2023-09-07T08:57:13;21.50;99.90
1379;DHT22;683;48.738;9.226;2023-09-07T08:59:41;21.50;99.90
1379;DHT22;683;48.738;9.226;2023-09-07T09:02:10;21.50;99.90
1379;DHT22;683;48.738;9.226;2023-09-07T09:04:38;21.70;99.90
1379;DHT22;683;48.738;9.226;2023-09-07T09:07:07;21.80;99.90
1379;DHT22;683;48.738;9.226;2023-09-07T09:09:34;21.80;99.90
1379;DHT22;683;48.738;9.226;2023-09-07T09:14:35;22.00;99.90
1379;DHT22;683;48.738;9.226;2023-09-07T09:17:03;22.10;99.90
1379;DHT22;683;48.738;9.226;2023-09-07T09:19:31;22.20;99.90
1379;DHT22;683;48.738;9.226;2023-09-07T09:21:58;22.20;99.90
1379;DHT22;683;48.738;9.226;2023-09-07T09:24:27;22.30;99.90
1379;DHT22;683;48.738;9.226;2023-09-07T09:26:58;22.30;99.90
1379;DHT22;683;48.738;9.226;2023-09-07T09:29:25;22.40;99.90
1379;DHT22;683;48.738;9.226;2023-09-07T09:31:53;22.40;99.90
1379;DHT22;683;48.738;9.226;2023-09-07T09:34:20;22.40;99.90
1379;DHT22;683;48.738;9.226;2023-09-07T09:36:49;22.50;99.90
1379;DHT22;683;48.738;9.226;2023-09-07T09:39:22;22.60;99.90
1379;DHT22;683;48.738;9.226;2023-09-07T09:41:52;22.70;99.90
1379;DHT22;683;48.738;9.226;2023-09-07T09:44:23;22.80;99.90
1379;DHT22;683;48.738;9.226;2023-09-07T09:46:52;22.90;99.90
1379;DHT22;683;48.738;9.226;2023-09-07T09:49:23;22.90;99.90
1379;DHT22;683;48.738;9.226;2023-09-07T09:51:52;23.00;99.90
1379;DHT22;683;48.738;9.226;2023-09-07T09:54:20;23.10;99.90
1379;DHT22;683;48.738;9.226;2023-09-07T09:56:47;23.10;99.90
1379;DHT22;683;48.738;9.226;2023-09-07T09:59:18;23.30;99.90
1379;DHT22;683;48.738;9.226;2023-09-07T10:01:51;23.40;99.90
1379;DHT22;683;48.738;9.226;2023-09-07T10:04:20;23.50;99.90
1379;DHT22;683;48.738;9.226;2023-09-07T10:06:55;23.70;99.90
1379;DHT22;683;48.738;9.226;2023-09-07T10:09:22;23.80;99.90
1379;DHT22;683;48.738;9.226;2023-09-07T10:11:53;23.90;99.90
1379;DHT22;683;48.738;9.226;2023-09-07T10:14:24;24.00;99.90
1379;DHT22;683;48.738;9.226;2023-09-07T10:16:53;24.10;99.90
1379;DHT22;683;48.738;9.226;2023-09-07T10:19:25;24.10;99.90
1379;DHT22;683;48.738;9.226;2023-09-07T10:21:54;24.10;99.90
1379;DHT22;683;48.738;9.226;2023-09-07T10:24:25;24.10;99.90
1379;DHT22;683;48.738;9.226;2023-09-07T10:26:59;24.20;99.90
1379;DHT22;683;48.738;9.226;2023-09-07T10:29:39;24.30;99.90
1379;DHT22;683;48.738;9.226;2023-09-07T10:32:08;24.40;99.90
1379;DHT22;683;48.738;9.226;2023-09-07T10:34:39;24.40;99.90
1379;DHT22;683;48.738;9.226;2023-09-07T10:37:09;24.50;99.90
1379;DHT22;683;48.738;9.226;2023-09-07T10:39:39;24.60;99.90
1379;DHT22;683;48.738;9.226;2023-09-07T10:42:20;24.70;99.90
1379;DHT22;683;48.738;9.226;2023-09-07T10:44:49;24.90;99.90
1379;DHT22;683;48.738;9.226;2023-09-07T10:47:17;24.90;99.90
1379;DHT22;683;48.738;9.226;2023-09-07T10:49:44;25.00;99.90
1379;DHT22;683;48.738;9.226;2023-09-07T10:52:11;25.10;99.90
1379;DHT22;683;48.738;9.226;2023-09-07T10:54:38;25.10;99.90
1379;DHT22;683;48.738;9.226;2023-09-07T10:57:09;25.20;99.90
1379;DHT22;683;48.738;9.226;2023-09-07T10:59:36;25.20;99.90
1379;DHT22;683;48.738;9.226;2023-09-07T11:02:06;25.20;99.90
1379;DHT22;683;48.738;9.226;2023-09-07T11:04:33;25.20;99.90
1379;DHT22;683;48.738;9.226;2023-09-07T11:07:01;25.30;99.90
1379;DHT22;683;48.738;9.226;2023-09-07T11:09:30;25.40;99.90
1379;DHT22;683;48.738;9.226;2023-09-07T11:12:04;25.50;99.90
1379;DHT22;683;48.738;9.226;2023-09-07T11:14:32;25.60;99.90
1379;DHT22;683;48.738;9.226;2023-09-07T11:17:06;25.80;99.90
1379;DHT22;683;48.738;9.226;2023-09-07T11:19:34;25.90;99.60
1379;DHT22;683;48.738;9.226;2023-09-07T11:22:03;26.00;99.90
1379;DHT22;683;48.738;9.226;2023-09-07T11:24:30;26.10;99.50
1379;DHT22;683;48.738;9.226;2023-09-07T11:26:58;26.20;99.80
1379;DHT22;683;48.738;9.226;2023-09-07T11:29:51;26.20;99.20
1379;DHT22;683;48.738;9.226;2023-09-07T11:32:19;26.30;98.60
1379;DHT22;683;48.738;9.226;2023-09-07T11:34:50;26.40;98.80
1379;DHT22;683;48.738;9.226;2023-09-07T11:37:22;26.50;98.50
1379;DHT22;683;48.738;9.226;2023-09-07T11:39:49;26.60;98.40
1379;DHT22;683;48.738;9.226;2023-09-07T11:42:19;26.70;98.30
1379;DHT22;683;48.738;9.226;2023-09-07T11:44:46;26.80;98.30
1379;DHT22;683;48.738;9.226;2023-09-07T11:47:14;26.80;97.70
1379;DHT22;683;48.738;9.226;2023-09-07T11:49:48;26.80;97.40
1379;DHT22;683;48.738;9.226;2023-09-07T11:52:19;26.90;97.60
1379;DHT22;683;48.738;9.226;2023-09-07T11:54:46;26.90;97.70
1379;DHT22;683;48.738;9.226;2023-09-07T11:57:14;27.00;97.20
1379;DHT22;683;48.738;9.226;2023-09-07T11:59:41;27.20;96.50
1379;DHT22;683;48.738;9.226;2023-09-07T12:02:09;27.20;96.40
1379;DHT22;683;48.738;9.226;2023-09-07T12:04:40;27.30;95.60
1379;DHT22;683;48.738;9.226;2023-09-07T12:07:09;27.30;95.90
1379;DHT22;683;48.738;9.226;2023-09-07T12:09:36;27.40;96.50
1379;DHT22;683;48.738;9.226;2023-09-07T12:12:04;27.40;95.90
1379;DHT22;683;48.738;9.226;2023-09-07T12:14:32;27.30;95.80
1379;DHT22;683;48.738;9.226;2023-09-07T12:16:59;27.40;96.20
1379;DHT22;683;48.738;9.226;2023-09-07T12:19:26;27.40;96.20
1379;DHT22;683;48.738;9.226;2023-09-07T12:21:53;27.50;96.40
1379;DHT22;683;48.738;9.226;2023-09-07T12:24:22;28.00;96.90
1379;DHT22;683;48.738;9.226;2023-09-07T12:26:49;29.00;95.40
1379;DHT22;683;48.738;9.226;2023-09-07T12:29:16;30.20;93.00
1379;DHT22;683;48.738;9.226;2023-09-07T12:31:44;31.50;90.20
1379;DHT22;683;48.738;9.226;2023-09-07T12:34:11;32.80;84.70
1379;DHT22;683;48.738;9.226;2023-09-07T12:36:38;34.10;77.30
1379;DHT22;683;48.738;9.226;2023-09-07T12:39:06;35.30;70.90
1379;DHT22;683;48.738;9.226;2023-09-07T12:41:35;36.30;65.10
1379;DHT22;683;48.738;9.226;2023-09-07T12:44:02;37.30;60.00
1379;DHT22;683;48.738;9.226;2023-09-07T12:46:30;38.20;56.70
1379;DHT22;683;48.738;9.226;2023-09-07T12:48:57;39.20;54.50
1379;DHT22;683;48.738;9.226;2023-09-07T12:51:25;39.70;51.10
1379;DHT22;683;48.738;9.226;2023-09-07T12:53:53;40.10;49.80
1379;DHT22;683;48.738;9.226;2023-09-07T12:56:20;40.70;48.30
1379;DHT22;683;48.738;9.226;2023-09-07T12:58:49;41.20;46.30
1379;DHT22;683;48.738;9.226;2023-09-07T13:01:18;41.70;45.60
1379;DHT22;683;48.738;9.226;2023-09-07T13:03:45;42.10;43.90
1379;DHT22;683;48.738;9.226;2023-09-07T13:06:13;42.50;42.50
1379;DHT22;683;48.738;9.226;2023-09-07T13:08:40;42.80;41.90
1379;DHT22;683;48.738;9.226;2023-09-07T13:11:07;43.30;41.10
1379;DHT22;683;48.738;9.226;2023-09-07T13:13:34;43.60;39.20
1379;DHT22;683;48.738;9.226;2023-09-07T13:16:04;43.60;38.60
1379;DHT22;683;48.738;9.226;2023-09-07T13:18:32;43.90;38.70
1379;DHT22;683;48.738;9.226;2023-09-07T13:20:59;44.20;37.20
1379;DHT22;683;48.738;9.226;2023-09-07T13:23:26;44.70;36.40
1379;DHT22;683;48.738;9.226;2023-09-07T13:25:54;45.00;36.20
1379;DHT22;683;48.738;9.226;2023-09-07T13:28:23;45.20;35.00
1379;DHT22;683;48.738;9.226;2023-09-07T13:30:50;45.20;34.20
1379;DHT22;683;48.738;9.226;2023-09-07T13:33:19;45.40;34.10
1379;DHT22;683;48.738;9.226;2023-09-07T13:35:46;46.00;33.50
1379;DHT22;683;48.738;9.226;2023-09-07T13:42:34;46.70;31.90
1379;DHT22;683;48.738;9.226;2023-09-07T13:45:01;47.30;31.10
1379;DHT22;683;48.738;9.226;2023-09-07T13:47:29;47.70;30.00
1379;DHT22;683;48.738;9.226;2023-09-07T13:49:57;47.80;29.90
1379;DHT22;683;48.738;9.226;2023-09-07T13:52:24;48.10;29.20
1379;DHT22;683;48.738;9.226;2023-09-07T13:54:52;48.10;29.30
1379;DHT22;683;48.738;9.226;2023-09-07T13:57:21;48.20;29.50
1379;DHT22;683;48.738;9.226;2023-09-07T13:59:51;48.30;29.10
1379;DHT22;683;48.738;9.226;2023-09-07T14:02:19;48.10;28.40
1379;DHT22;683;48.738;9.226;2023-09-07T14:04:46;48.40;28.90
1379;DHT22;683;48.738;9.226;2023-09-07T14:07:16;48.50;28.70
1379;DHT22;683;48.738;9.226;2023-09-07T14:09:44;48.30;28.40
1379;DHT22;683;48.738;9.226;2023-09-07T14:12:14;48.30;28.50
1379;DHT22;683;48.738;9.226;2023-09-07T14:14:41;48.80;28.50
1379;DHT22;683;48.738;9.226;2023-09-07T14:17:08;49.30;27.90
1379;DHT22;683;48.738;9.226;2023-09-07T14:19:36;49.50;27.40
1379;DHT22;683;48.738;9.226;2023-09-07T14:22:04;49.30;26.70
1379;DHT22;683;48.738;9.226;2023-09-07T14:24:32;49.00;27.20
1379;DHT22;683;48.738;9.226;2023-09-07T14:27:00;49.30;27.30
1379;DHT22;683;48.738;9.226;2023-09-07T14:29:27;49.70;26.80
1379;DHT22;683;48.738;9.226;2023-09-07T14:31:55;50.10;26.80
1379;DHT22;683;48.738;9.226;2023-09-07T14:34:25;50.10;26.40
1379;DHT22;683;48.738;9.226;2023-09-07T14:36:52;50.00;26.50
1379;DHT22;683;48.738;9.226;2023-09-07T14:39:23;50.10;26.40
1379;DHT22;683;48.738;9.226;2023-09-07T14:41:51;50.00;26.20
1379;DHT22;683;48.738;9.226;2023-09-07T14:44:19;49.90;26.10
1379;DHT22;683;48.738;9.226;2023-09-07T14:46:47;50.00;26.40
1379;DHT22;683;48.738;9.226;2023-09-07T14:49:16;50.20;25.90
1379;DHT22;683;48.738;9.226;2023-09-07T14:51:44;50.00;25.80
1379;DHT22;683;48.738;9.226;2023-09-07T14:54:12;49.80;26.00
1379;DHT22;683;48.738;9.226;2023-09-07T14:56:39;49.90;25.80
1379;DHT22;683;48.738;9.226;2023-09-07T14:59:10;49.80;25.90
1379;DHT22;683;48.738;9.226;2023-09-07T15:01:38;49.70;26.10
1379;DHT22;683;48.738;9.226;2023-09-07T15:04:05;49.70;26.20
1379;DHT22;683;48.738;9.226;2023-09-07T15:06:34;49.60;26.00
1379;DHT22;683;48.738;9.226;2023-09-07T15:09:03;49.70;26.10
1379;DHT22;683;48.738;9.226;2023-09-07T15:11:30;49.80;25.80
1379;DHT22;683;48.738;9.226;2023-09-07T15:13:59;49.80;25.60
1379;DHT22;683;48.738;9.226;2023-09-07T15:16:32;50.10;25.60
1379;DHT22;683;48.738;9.226;2023-09-07T15:19:00;49.80;25.50
1379;DHT22;683;48.738;9.226;2023-09-07T15:21:28;49.60;25.60
1379;DHT22;683;48.738;9.226;2023-09-07T15:23:55;49.40;25.60
1379;DHT22;683;48.738;9.226;2023-09-07T15:26:23;49.50;25.60
1379;DHT22;683;48.738;9.226;2023-09-07T15:28:52;49.50;25.60
1379;DHT22;683;48.738;9.226;2023-09-07T15:31:19;49.50;25.60
1379;DHT22;683;48.738;9.226;2023-09-07T15:33:48;49.20;25.60
1379;DHT22;683;48.738;9.226;2023-09-07T15:36:17;49.10;25.60
1379;DHT22;683;48.738;9.226;2023-09-07T15:38:45;49.30;25.70
1379;DHT22;683;48.738;9.226;2023-09-07T15:41:14;49.00;25.60
1379;DHT22;683;48.738;9.226;2023-09-07T15:43:45;48.60;25.80
1379;DHT22;683;48.738;9.226;2023-09-07T15:46:15;47.10;26.80
1379;DHT22;683;48.738;9.226;2023-09-07T15:48:44;44.70;28.60
1379;DHT22;683;48.738;9.226;2023-09-07T15:51:20;41.90;31.00
1379;DHT22;683;48.738;9.226;2023-09-07T15:53:51;39.30;34.40
1379;DHT22;683;48.738;9.226;2023-09-07T15:56:24;37.30;37.50
1379;DHT22;683;48.738;9.226;2023-09-07T15:58:53;35.70;39.90
1379;DHT22;683;48.738;9.226;2023-09-07T16:01:20;34.40;42.30
1379;DHT22;683;48.738;9.226;2023-09-07T16:07:16;32.40;46.50
1379;DHT22;683;48.738;9.226;2023-09-07T16:09:43;31.70;48.10
1379;DHT22;683;48.738;9.226;2023-09-07T16:12:10;31.50;48.90
1379;DHT22;683;48.738;9.226;2023-09-07T16:14:38;31.50;49.10
1379;DHT22;683;48.738;9.226;2023-09-07T16:17:08;31.90;48.30
1379;DHT22;683;48.738;9.226;2023-09-07T16:19:37;32.70;47.40
1379;DHT22;683;48.738;9.226;2023-09-07T16:22:09;34.30;45.50
1379;DHT22;683;48.738;9.226;2023-09-07T16:24:45;36.20;42.40
1379;DHT22;683;48.738;9.226;2023-09-07T16:27:12;37.80;39.30
1379;DHT22;683;48.738;9.226;2023-09-07T16:29:39;39.10;37.00
1379;DHT22;683;48.738;9.226;2023-09-07T16:32:09;39.90;35.40
1379;DHT22;683;48.738;9.226;2023-09-07T16:34:36;40.60;34.50